»·PEaware :: N906AM KAJO-KVCV

N906AM :: KAJO-KVCV

FLIGHT INFORMATION

Flight Status: Arrived
Operator: Privately registered:
United States
More flights under this callsign
Pilot: Luiz A. (31895)
Aircraft: SOCATA TBM-900
(TBM9)
More flights by this aircraft type
Origin: KAJO Corona Mun
United States
Destination: KVCV Socal Logistics
United States
More flights between these airports :: More routes between these airports
Route: PDZ V442 APLES
File this flight plan on PilotEdge
Remarks:
Altitude:
(Current/Filed)
11,000ft
Speed:
(Current/Filed)
260kts
Departed: 01-Dec-20 09:39 AM
Arrived: 01-Dec-20 10:18 AM
Distance/Time
Traveled:
43nm/0:39
Distance/Time
To Go:
Arrived

Flight Plot

Page will automatically refresh every two minutes.


Map Options




Map Legend


Flown Route
Filed Route
Departure Airport
Arrival Airport
Navaid (VOR, NDB)
Fix

Horizontal Profiles

Position Reports

Time Latitude Longitude Heading Altitude Ground
Speed
01-Dec-20 09:15 33.897120 -117.598689 106 534ft 0kts
01-Dec-20 09:16 33.897120 -117.598689 106 534ft 0kts
01-Dec-20 09:17 33.897120 -117.598689 106 534ft 0kts
01-Dec-20 09:18 33.897120 -117.598689 106 534ft 0kts
01-Dec-20 09:19 33.897120 -117.598689 106 534ft 0kts
01-Dec-20 09:20 33.897120 -117.598689 106 534ft 0kts
01-Dec-20 09:20 33.897120 -117.598689 106 534ft 0kts
01-Dec-20 09:22 33.897120 -117.598689 106 534ft 0kts
01-Dec-20 09:22 33.897120 -117.598689 106 534ft 0kts
01-Dec-20 09:24 33.897120 -117.598689 106 534ft 0kts
01-Dec-20 09:24 33.897120 -117.598689 106 534ft 0kts
01-Dec-20 09:26 33.897154 -117.598829 106 534ft 0kts
01-Dec-20 09:26 33.897154 -117.598829 106 534ft 0kts
01-Dec-20 09:27 33.897154 -117.598829 106 534ft 0kts
01-Dec-20 09:28 33.897262 -117.599639 268 532ft 12kts
01-Dec-20 09:29 33.897219 -117.603787 269 525ft 11kts
01-Dec-20 09:30 33.897191 -117.607106 269 518ft 0kts
01-Dec-20 09:31 33.897191 -117.607106 269 518ft 0kts
01-Dec-20 09:32 33.897191 -117.607106 269 518ft 0kts
01-Dec-20 09:33 33.897191 -117.607106 269 518ft 0kts
01-Dec-20 09:34 33.897191 -117.607106 269 518ft 0kts
01-Dec-20 09:35 33.897610 -117.607047 90 519ft 0kts
01-Dec-20 09:36 33.897635 -117.605638 89 521ft 5kts
01-Dec-20 09:37 33.897635 -117.605627 89 521ft 0kts
01-Dec-20 09:38 33.897795 -117.596661 87 633ft 104kts
01-Dec-20 09:39 33.911449 -117.550887 58 1628ft 175kts
01-Dec-20 09:40 33.936735 -117.500242 45 3049ft 177kts
01-Dec-20 09:41 33.971925 -117.483550 283 4073ft 152kts
01-Dec-20 09:42 33.937677 -117.509017 200 4918ft 169kts
01-Dec-20 09:43 33.913249 -117.552309 305 5740ft 178kts
01-Dec-20 09:44 33.955864 -117.541455 40 6570ft 180kts
01-Dec-20 09:45 33.974859 -117.495262 140 7386ft 185kts
01-Dec-20 09:46 33.929094 -117.514583 223 8217ft 192kts
01-Dec-20 09:47 33.937130 -117.558751 10 9069ft 196kts
01-Dec-20 09:48 33.974315 -117.508386 62 10089ft 221kts
01-Dec-20 09:49 34.027527 -117.471393 16 10886ft 241kts
01-Dec-20 09:50 34.091328 -117.438586 23 10971ft 256kts
01-Dec-20 09:51 34.157067 -117.404461 25 10990ft 258kts
01-Dec-20 09:52 34.219786 -117.362116 30 10991ft 258kts
01-Dec-20 09:54 34.293701 -117.314510 29 10992ft 257kts
01-Dec-20 09:54 34.346173 -117.280761 29 10998ft 255kts
01-Dec-20 09:55 34.413963 -117.257431 357 10054ft 271kts
01-Dec-20 09:56 34.480498 -117.270263 350 9141ft 188kts
01-Dec-20 09:57 34.529093 -117.274482 0 8441ft 176kts
01-Dec-20 09:58 34.576361 -117.275444 0 8132ft 163kts
01-Dec-20 09:59 34.620777 -117.275613 2 8128ft 159kts
01-Dec-20 10:00 34.667016 -117.274433 2 8115ft 172kts
01-Dec-20 10:01 34.716180 -117.272853 2 8018ft 169kts
01-Dec-20 10:02 34.762620 -117.269055 8 8002ft 158kts
01-Dec-20 10:03 34.805422 -117.265780 357 7998ft 152kts
01-Dec-20 10:04 34.847475 -117.270827 356 7992ft 146kts
01-Dec-20 10:05 34.889754 -117.276141 355 6948ft 163kts
01-Dec-20 10:06 34.919250 -117.305752 278 6135ft 137kts
01-Dec-20 10:07 34.915215 -117.349092 224 6096ft 134kts
01-Dec-20 10:08 34.880722 -117.370871 202 6102ft 144kts
01-Dec-20 10:09 34.843305 -117.388991 194 6098ft 136kts
01-Dec-20 10:10 34.805828 -117.387942 178 6100ft 137kts
01-Dec-20 10:11 34.766636 -117.388510 178 5903ft 152kts
01-Dec-20 10:12 34.723771 -117.387834 179 4956ft 148kts
01-Dec-20 10:13 34.684058 -117.387389 179 4095ft 138kts
01-Dec-20 10:14 34.646691 -117.387003 179 3334ft 130kts
01-Dec-20 10:15 34.612109 -117.386734 179 2871ft 112kts
01-Dec-20 10:16 34.584220 -117.386430 178 2882ft 63kts
01-Dec-20 10:17 34.580493 -117.384984 82 2881ft 0kts
01-Dec-20 10:18 34.582788 -117.384339 359 2881ft 13kts
01-Dec-20 10:19 34.585367 -117.381814 45 2876ft 17kts
01-Dec-20 10:20 34.586330 -117.379284 49 2873ft 0kts

Navigation Log

Ident Type
Flight plan parsing failed, navigation log unavailable